createdAt,value
2023-01-13T00:00:20.114Z,100.00
2023-01-13T00:01:20.092Z,100.00
2023-01-13T00:02:20.154Z,100.00
2023-01-13T00:03:20.080Z,100.00
2023-01-13T00:04:20.024Z,100.00
2023-01-13T00:05:20.037Z,100.00
2023-01-13T00:06:20.011Z,100.00
2023-01-13T00:07:20.010Z,100.00
2023-01-13T00:08:20.000Z,100.00
2023-01-13T00:09:19.973Z,100.00
2023-01-13T00:10:19.976Z,100.00
2023-01-13T00:11:19.957Z,100.00
2023-01-13T00:12:19.919Z,100.00
2023-01-13T00:13:19.932Z,100.00
2023-01-13T00:14:19.890Z,100.00
2023-01-13T00:15:19.912Z,100.00
2023-01-13T00:16:19.907Z,100.00
2023-01-13T00:17:19.864Z,100.00
2023-01-13T00:18:19.850Z,100.00
2023-01-13T00:19:19.844Z,100.00
2023-01-13T00:20:19.837Z,100.00
2023-01-13T00:21:19.801Z,100.00
2023-01-13T00:22:19.811Z,100.00
2023-01-13T00:23:19.798Z,100.00
2023-01-13T00:24:19.758Z,100.00
2023-01-13T00:25:19.747Z,100.00
2023-01-13T00:26:19.769Z,100.00
2023-01-13T00:27:19.769Z,100.00
2023-01-13T00:28:19.712Z,100.00
2023-01-13T00:29:19.706Z,100.00
2023-01-13T00:30:19.704Z,100.00
2023-01-13T00:31:19.786Z,100.00
2023-01-13T00:32:19.669Z,100.00
2023-01-13T00:33:19.661Z,100.00
2023-01-13T00:34:19.674Z,100.00
2023-01-13T00:35:19.636Z,100.00
2023-01-13T00:36:19.639Z,100.00
2023-01-13T00:37:19.622Z,100.00
2023-01-13T00:38:19.590Z,100.00
2023-01-13T00:39:19.600Z,100.00
2023-01-13T00:40:19.550Z,100.00
2023-01-13T00:41:19.570Z,100.00
2023-01-13T00:42:19.524Z,100.00
2023-01-13T00:43:19.513Z,100.00
2023-01-13T00:44:19.545Z,100.00
2023-01-13T00:45:19.499Z,99.83
2023-01-13T00:46:19.604Z,100.00
2023-01-13T00:47:19.462Z,100.00
2023-01-13T00:48:19.451Z,100.00
2023-01-13T00:49:19.478Z,100.00
2023-01-13T00:50:19.433Z,100.00
2023-01-13T00:51:19.427Z,100.00
2023-01-13T00:52:19.430Z,100.00
2023-01-13T00:53:19.386Z,100.00
2023-01-13T00:54:19.356Z,100.00
2023-01-13T00:55:19.354Z,100.00
2023-01-13T00:56:22.096Z,100.00
2023-01-13T00:57:19.346Z,99.94
2023-01-13T00:58:19.305Z,99.70
2023-01-13T00:59:19.300Z,99.80
2023-01-13T01:00:19.285Z,99.76
2023-01-13T01:01:19.404Z,99.77
2023-01-13T01:02:19.289Z,99.77
2023-01-13T01:03:19.238Z,99.86
2023-01-13T01:04:19.233Z,99.79
2023-01-13T01:05:19.207Z,99.77
2023-01-13T01:06:19.212Z,99.91
2023-01-13T01:07:19.210Z,99.66
2023-01-13T01:08:19.212Z,99.67
2023-01-13T01:09:19.172Z,99.54
2023-01-13T01:10:19.169Z,99.54
2023-01-13T01:11:19.149Z,99.56
2023-01-13T01:12:19.120Z,99.35
2023-01-13T01:13:19.108Z,99.03
2023-01-13T01:14:19.116Z,98.99
2023-01-13T01:15:19.082Z,98.96
2023-01-13T01:16:19.120Z,98.78
2023-01-13T01:17:19.084Z,98.76
2023-01-13T01:18:19.068Z,98.85
2023-01-13T01:19:19.045Z,99.00
2023-01-13T01:20:19.042Z,98.97
2023-01-13T01:21:19.006Z,98.95
2023-01-13T01:22:19.005Z,98.58
2023-01-13T01:23:18.988Z,98.23
2023-01-13T01:24:18.990Z,98.39
2023-01-13T01:25:19.010Z,98.54
2023-01-13T01:26:18.944Z,98.26
2023-01-13T01:27:18.967Z,97.98
2023-01-13T01:28:18.924Z,97.98
2023-01-13T01:29:18.928Z,98.05
2023-01-13T01:30:18.897Z,98.15
2023-01-13T01:31:18.949Z,97.94
2023-01-13T01:32:18.886Z,97.92
2023-01-13T01:33:18.861Z,97.77
2023-01-13T01:34:18.864Z,97.92
2023-01-13T01:35:18.820Z,97.84
2023-01-13T01:36:18.843Z,97.71
2023-01-13T01:37:18.789Z,97.89
2023-01-13T01:38:18.815Z,97.67
2023-01-13T01:39:18.799Z,97.61
2023-01-13T01:40:18.787Z,97.72
2023-01-13T01:41:18.767Z,97.72
2023-01-13T01:42:18.747Z,97.79
2023-01-13T01:43:18.753Z,97.72
2023-01-13T01:44:18.694Z,97.49
2023-01-13T01:45:18.690Z,97.55
2023-01-13T01:46:18.708Z,97.49
2023-01-13T01:47:18.688Z,97.71
2023-01-13T01:48:18.658Z,97.60
2023-01-13T01:49:18.683Z,97.54
2023-01-13T01:50:18.648Z,97.56
2023-01-13T01:51:18.634Z,97.30
2023-01-13T01:52:18.635Z,97.26
2023-01-13T01:53:18.611Z,97.27
2023-01-13T01:54:18.589Z,97.18
2023-01-13T01:55:18.604Z,97.17
2023-01-13T01:56:18.538Z,96.94
2023-01-13T01:57:18.536Z,96.68
2023-01-13T01:58:18.512Z,96.67
2023-01-13T01:59:18.526Z,96.13
2023-01-13T02:00:18.492Z,96.10
2023-01-13T02:01:18.648Z,96.21
2023-01-13T02:02:18.476Z,96.22
2023-01-13T02:03:18.491Z,96.47
2023-01-13T02:04:18.464Z,96.37
2023-01-13T02:05:18.436Z,96.51
2023-01-13T02:06:18.443Z,96.53
2023-01-13T02:07:18.459Z,96.38
2023-01-13T02:08:18.413Z,96.36
2023-01-13T02:09:18.412Z,96.07
2023-01-13T02:10:18.361Z,96.02
2023-01-13T02:11:18.350Z,95.77
2023-01-13T02:12:18.351Z,95.72
2023-01-13T02:13:18.335Z,95.92
2023-01-13T02:14:18.322Z,95.89
2023-01-13T02:15:18.315Z,95.93
2023-01-13T02:16:18.322Z,95.93
2023-01-13T02:17:18.258Z,95.81
2023-01-13T02:18:18.321Z,95.71
2023-01-13T02:19:18.302Z,95.58
2023-01-13T02:20:18.275Z,95.81
2023-01-13T02:21:18.222Z,95.65
2023-01-13T02:22:18.194Z,95.53
2023-01-13T02:23:18.226Z,95.42
2023-01-13T02:24:18.179Z,95.61
2023-01-13T02:25:18.209Z,95.77
2023-01-13T02:26:18.184Z,95.50
2023-01-13T02:27:18.149Z,95.46
2023-01-13T02:28:18.117Z,95.09
2023-01-13T02:29:18.150Z,95.10
2023-01-13T02:30:18.134Z,95.18
2023-01-13T02:31:18.138Z,95.42
2023-01-13T02:32:18.056Z,95.59
2023-01-13T02:33:18.086Z,95.61
2023-01-13T02:34:18.070Z,95.66
2023-01-13T02:35:18.067Z,95.80
2023-01-13T02:36:18.075Z,95.85
2023-01-13T02:37:18.020Z,95.81
2023-01-13T02:38:17.984Z,95.84
2023-01-13T02:39:17.985Z,95.92
2023-01-13T02:40:17.970Z,95.71
2023-01-13T02:41:17.993Z,95.73
2023-01-13T02:42:17.989Z,95.89
2023-01-13T02:43:17.934Z,95.93
2023-01-13T02:44:17.893Z,95.98
2023-01-13T02:45:17.908Z,96.03
2023-01-13T02:46:17.894Z,96.01
2023-01-13T02:47:17.863Z,95.91
2023-01-13T02:48:17.857Z,96.07
2023-01-13T02:49:17.853Z,95.97
2023-01-13T02:50:17.834Z,96.00
2023-01-13T02:51:17.810Z,96.05
2023-01-13T02:52:17.839Z,95.65
2023-01-13T02:53:17.800Z,95.64
2023-01-13T02:54:17.836Z,95.25
2023-01-13T02:55:17.775Z,95.31
2023-01-13T02:56:17.779Z,95.24
2023-01-13T02:57:17.739Z,95.11
2023-01-13T02:58:17.761Z,95.39
2023-01-13T02:59:17.713Z,95.57
2023-01-13T03:00:17.714Z,95.63
2023-01-13T03:01:17.880Z,95.55
2023-01-13T03:02:17.897Z,95.42
2023-01-13T03:03:17.650Z,95.31
2023-01-13T03:04:17.682Z,95.29
2023-01-13T03:05:17.616Z,94.77
2023-01-13T03:06:17.596Z,94.75
2023-01-13T03:07:17.579Z,94.78
2023-01-13T03:08:17.629Z,94.79
2023-01-13T03:09:17.555Z,95.08
2023-01-13T03:10:17.549Z,94.97
2023-01-13T03:11:17.597Z,95.08
2023-01-13T03:12:17.554Z,94.86
2023-01-13T03:13:17.520Z,94.83
2023-01-13T03:14:17.528Z,94.70
2023-01-13T03:15:17.483Z,94.82
2023-01-13T03:16:17.503Z,95.04
2023-01-13T03:17:17.444Z,94.97
2023-01-13T03:18:17.452Z,95.02
2023-01-13T03:19:17.419Z,94.93
2023-01-13T03:20:17.421Z,94.94
2023-01-13T03:21:17.414Z,95.12
2023-01-13T03:22:17.403Z,95.06
2023-01-13T03:23:17.370Z,95.02
2023-01-13T03:24:17.363Z,94.74
2023-01-13T03:25:17.368Z,94.40
2023-01-13T03:26:17.383Z,94.46
2023-01-13T03:27:17.330Z,94.52
2023-01-13T03:28:17.349Z,94.47
2023-01-13T03:29:17.309Z,94.65
2023-01-13T03:30:17.302Z,94.63
2023-01-13T03:31:17.262Z,94.56
2023-01-13T03:32:17.253Z,94.56
2023-01-13T03:33:17.249Z,94.44
2023-01-13T03:34:17.240Z,94.37
2023-01-13T03:35:17.227Z,94.53
2023-01-13T03:36:17.234Z,94.60
2023-01-13T03:37:17.188Z,94.56
2023-01-13T03:38:17.215Z,94.43
2023-01-13T03:39:17.155Z,94.49
2023-01-13T03:40:17.172Z,94.46
2023-01-13T03:41:17.168Z,94.39
2023-01-13T03:42:17.137Z,94.39
2023-01-13T03:43:17.137Z,94.30
2023-01-13T03:44:17.112Z,94.53
2023-01-13T03:45:17.109Z,94.48
2023-01-13T03:46:17.163Z,94.45
2023-01-13T03:47:17.063Z,94.62
2023-01-13T03:48:17.051Z,94.78
2023-01-13T03:49:17.024Z,94.72
2023-01-13T03:50:17.039Z,94.55
2023-01-13T03:51:17.021Z,94.42
2023-01-13T03:52:17.010Z,94.30
2023-01-13T03:53:16.973Z,94.47
2023-01-13T03:54:16.962Z,94.52
2023-01-13T03:55:16.957Z,94.48
2023-01-13T03:56:16.938Z,94.54
2023-01-13T03:57:16.938Z,94.36
2023-01-13T03:58:16.988Z,94.37
2023-01-13T03:59:16.904Z,94.44
2023-01-13T04:00:16.904Z,94.48
2023-01-13T04:01:16.971Z,94.65
2023-01-13T04:02:16.930Z,94.72
2023-01-13T04:03:16.847Z,94.79
2023-01-13T04:04:16.833Z,94.86
2023-01-13T04:05:16.808Z,94.87
2023-01-13T04:06:16.845Z,94.86
2023-01-13T04:07:16.797Z,94.59
2023-01-13T04:08:16.857Z,94.47
2023-01-13T04:09:16.767Z,94.58
2023-01-13T04:10:16.760Z,94.66
2023-01-13T04:11:16.739Z,94.70
2023-01-13T04:12:16.723Z,94.70
2023-01-13T04:13:16.735Z,94.52
2023-01-13T04:14:16.723Z,94.53
2023-01-13T04:15:16.711Z,94.58
2023-01-13T04:16:16.697Z,94.75
2023-01-13T04:17:16.664Z,94.80
2023-01-13T04:18:16.672Z,94.63
2023-01-13T04:19:16.642Z,94.46
2023-01-13T04:20:16.619Z,94.43
2023-01-13T04:21:16.649Z,94.29
2023-01-13T04:22:16.609Z,94.38
2023-01-13T04:23:16.605Z,94.49
2023-01-13T04:24:16.580Z,94.67
2023-01-13T04:25:16.547Z,94.78
2023-01-13T04:26:16.548Z,94.79
2023-01-13T04:27:16.540Z,94.87
2023-01-13T04:28:16.511Z,94.87
2023-01-13T04:29:16.502Z,94.83
2023-01-13T04:30:16.501Z,94.54
2023-01-13T04:31:16.508Z,94.44
2023-01-13T04:32:16.499Z,94.45
2023-01-13T04:33:16.466Z,94.44
2023-01-13T04:34:16.431Z,94.54
2023-01-13T04:35:16.428Z,94.18
2023-01-13T04:36:16.431Z,94.11
2023-01-13T04:37:16.411Z,94.17
2023-01-13T04:38:16.401Z,94.30
2023-01-13T04:39:16.363Z,94.42
2023-01-13T04:40:16.380Z,94.70
2023-01-13T04:41:16.350Z,94.91
2023-01-13T04:42:16.326Z,94.89
2023-01-13T04:43:16.340Z,94.95
2023-01-13T04:44:16.293Z,95.00
2023-01-13T04:45:16.315Z,95.23
2023-01-13T04:46:16.283Z,95.18
2023-01-13T04:47:16.276Z,95.23
2023-01-13T04:48:16.254Z,95.31
2023-01-13T04:49:16.235Z,95.29
2023-01-13T04:50:16.227Z,95.19
2023-01-13T04:51:16.209Z,95.11
2023-01-13T04:52:16.191Z,95.12
2023-01-13T04:53:16.201Z,95.01
2023-01-13T04:54:16.217Z,94.95
2023-01-13T04:55:16.177Z,94.91
2023-01-13T04:56:16.164Z,94.61
2023-01-13T04:57:16.160Z,94.68
2023-01-13T04:58:16.108Z,94.51
2023-01-13T04:59:16.127Z,94.44
2023-01-13T05:00:16.092Z,94.49
2023-01-13T05:01:16.228Z,94.40
2023-01-13T05:02:16.127Z,94.09
2023-01-13T05:03:16.073Z,94.08
2023-01-13T05:04:16.039Z,94.06
2023-01-13T05:05:16.059Z,93.88
2023-01-13T05:06:16.014Z,93.61
2023-01-13T05:07:16.033Z,93.67
2023-01-13T05:08:16.000Z,93.84
2023-01-13T05:09:15.982Z,93.78
2023-01-13T05:10:15.963Z,93.81
2023-01-13T05:11:15.952Z,93.85
2023-01-13T05:12:15.970Z,93.92
2023-01-13T05:13:15.919Z,93.86
2023-01-13T05:14:15.928Z,93.87
2023-01-13T05:15:15.894Z,93.66
2023-01-13T05:16:15.913Z,93.65
2023-01-13T05:17:15.884Z,93.59
2023-01-13T05:18:15.857Z,93.63
2023-01-13T05:19:15.865Z,93.80
2023-01-13T05:20:15.833Z,93.85
2023-01-13T05:21:15.823Z,93.79
2023-01-13T05:22:15.822Z,93.84
2023-01-13T05:23:15.803Z,93.88
2023-01-13T05:24:15.780Z,93.84
2023-01-13T05:25:15.763Z,93.91
2023-01-13T05:26:15.743Z,94.08
2023-01-13T05:27:15.744Z,94.22
2023-01-13T05:28:15.722Z,94.40
2023-01-13T05:29:15.715Z,94.47
2023-01-13T05:30:15.687Z,94.24
2023-01-13T05:31:15.725Z,94.22
2023-01-13T05:32:15.677Z,94.22
2023-01-13T05:33:15.647Z,93.99
2023-01-13T05:34:15.649Z,93.97
2023-01-13T05:35:15.646Z,94.19
2023-01-13T05:36:15.613Z,93.87
2023-01-13T05:37:15.593Z,93.97
2023-01-13T05:38:15.585Z,94.00
2023-01-13T05:39:15.572Z,94.09
2023-01-13T05:40:15.568Z,94.29
2023-01-13T05:41:15.542Z,94.22
2023-01-13T05:42:15.528Z,94.13
2023-01-13T05:43:15.525Z,94.03
2023-01-13T05:44:15.518Z,93.94
2023-01-13T05:45:15.514Z,94.09
2023-01-13T05:46:15.535Z,94.14
2023-01-13T05:47:15.461Z,94.26
2023-01-13T05:48:15.488Z,94.18
2023-01-13T05:49:15.458Z,94.33
2023-01-13T05:50:15.435Z,94.28
2023-01-13T05:51:15.413Z,94.13
2023-01-13T05:52:15.413Z,94.14
2023-01-13T05:53:15.413Z,93.85
2023-01-13T05:54:15.403Z,93.57
2023-01-13T05:55:15.382Z,93.72
2023-01-13T05:56:15.336Z,93.88
2023-01-13T05:57:15.332Z,94.08
2023-01-13T05:58:15.333Z,94.11
2023-01-13T05:59:15.323Z,94.15
2023-01-13T06:00:15.282Z,94.02
2023-01-13T06:01:15.349Z,94.10
2023-01-13T06:02:15.264Z,94.23
2023-01-13T06:03:15.326Z,94.36
2023-01-13T06:04:15.276Z,94.36
2023-01-13T06:05:15.250Z,94.27
2023-01-13T06:06:15.224Z,94.48
2023-01-13T06:07:15.206Z,94.54
2023-01-13T06:08:15.184Z,94.77
2023-01-13T06:09:15.171Z,94.47
2023-01-13T06:10:15.189Z,94.52
2023-01-13T06:11:15.160Z,94.49
2023-01-13T06:12:15.140Z,94.26
2023-01-13T06:13:15.144Z,94.16
2023-01-13T06:14:15.104Z,94.25
2023-01-13T06:15:15.115Z,94.31
2023-01-13T06:16:15.103Z,94.37
2023-01-13T06:17:15.091Z,94.35
2023-01-13T06:18:15.051Z,94.34
2023-01-13T06:19:15.078Z,94.52
2023-01-13T06:20:15.027Z,94.56
2023-01-13T06:21:15.015Z,94.50
2023-01-13T06:22:14.991Z,94.48
2023-01-13T06:23:14.994Z,94.53
2023-01-13T06:24:14.980Z,94.47
2023-01-13T06:25:14.957Z,94.29
2023-01-13T06:26:14.941Z,94.23
2023-01-13T06:27:14.956Z,94.40
2023-01-13T06:28:14.941Z,94.41
2023-01-13T06:29:14.945Z,94.45
2023-01-13T06:30:14.901Z,94.31
2023-01-13T06:31:14.911Z,94.29
2023-01-13T06:32:14.889Z,94.04
2023-01-13T06:33:14.871Z,93.93
2023-01-13T06:34:14.854Z,93.93
2023-01-13T06:35:14.849Z,93.98
2023-01-13T06:36:14.837Z,93.84
2023-01-13T06:37:14.821Z,93.76
2023-01-13T06:38:14.829Z,93.89
2023-01-13T06:39:14.930Z,93.82
2023-01-13T06:40:14.754Z,93.81
2023-01-13T06:41:14.799Z,93.72
2023-01-13T06:42:14.741Z,93.70
2023-01-13T06:43:16.363Z,93.91
2023-01-13T06:44:14.710Z,93.95
2023-01-13T06:45:14.730Z,94.08
2023-01-13T06:46:14.750Z,94.13
2023-01-13T06:47:14.682Z,94.12
2023-01-13T06:48:14.674Z,94.39
2023-01-13T06:49:14.655Z,94.61
2023-01-13T06:50:14.696Z,94.72
2023-01-13T06:51:14.630Z,94.84
2023-01-13T06:52:14.601Z,95.06
2023-01-13T06:53:14.617Z,95.19
2023-01-13T06:54:14.582Z,95.40
2023-01-13T06:55:14.570Z,95.45
2023-01-13T06:56:14.554Z,95.71
2023-01-13T06:57:14.565Z,95.77
2023-01-13T06:58:14.518Z,95.66
2023-01-13T06:59:14.546Z,95.67
2023-01-13T07:00:14.508Z,95.84
2023-01-13T07:01:14.687Z,95.78
2023-01-13T07:02:14.605Z,95.90
2023-01-13T07:03:14.473Z,95.82
2023-01-13T07:04:14.436Z,95.42
2023-01-13T07:05:14.454Z,95.16
2023-01-13T07:06:14.438Z,95.14
2023-01-13T07:07:14.423Z,94.97
2023-01-13T07:08:14.383Z,94.79
2023-01-13T07:09:14.403Z,94.61
2023-01-13T07:10:14.375Z,94.44
2023-01-13T07:11:14.351Z,94.58
2023-01-13T07:12:14.354Z,94.80
2023-01-13T07:13:14.439Z,95.20
2023-01-13T07:14:14.332Z,95.39
2023-01-13T07:15:14.311Z,95.33
2023-01-13T07:16:14.315Z,95.40
2023-01-13T07:17:14.320Z,94.87
2023-01-13T07:18:14.289Z,93.76
2023-01-13T07:19:14.305Z,92.45
2023-01-13T07:20:14.227Z,92.48
2023-01-13T07:21:14.242Z,92.88
2023-01-13T07:22:14.218Z,92.80
2023-01-13T07:23:14.255Z,92.62
2023-01-13T07:24:14.182Z,92.74
2023-01-13T07:25:14.205Z,92.78
2023-01-13T07:26:14.185Z,93.10
2023-01-13T07:27:14.183Z,92.59
2023-01-13T07:28:14.178Z,92.37
2023-01-13T07:29:14.161Z,92.09
2023-01-13T07:30:14.139Z,91.49
2023-01-13T07:31:14.222Z,91.41
2023-01-13T07:32:14.116Z,91.00
2023-01-13T07:33:14.086Z,90.46
2023-01-13T07:34:14.067Z,90.18
2023-01-13T07:35:14.065Z,89.73
2023-01-13T07:36:14.040Z,88.97
2023-01-13T07:37:14.058Z,89.02
2023-01-13T07:38:14.052Z,89.08
2023-01-13T07:39:14.014Z,89.33
2023-01-13T07:40:14.016Z,89.43
2023-01-13T07:41:13.954Z,89.41
2023-01-13T07:42:13.942Z,89.29
2023-01-13T07:43:13.967Z,89.45
2023-01-13T07:44:13.967Z,89.61
2023-01-13T07:45:13.912Z,89.86
2023-01-13T07:46:13.912Z,89.69
2023-01-13T07:47:13.888Z,90.32
2023-01-13T07:48:13.855Z,90.26
2023-01-13T07:49:13.860Z,90.76
2023-01-13T07:50:13.837Z,90.62
2023-01-13T07:51:13.834Z,90.47
2023-01-13T07:52:13.859Z,91.03
2023-01-13T07:53:13.800Z,91.16
2023-01-13T07:54:13.788Z,91.24
2023-01-13T07:55:13.768Z,91.42
2023-01-13T07:56:13.764Z,91.58
2023-01-13T07:57:13.745Z,91.75
2023-01-13T07:58:13.739Z,91.43
2023-01-13T07:59:13.730Z,91.84
2023-01-13T08:00:13.712Z,91.88
2023-01-13T08:01:13.866Z,91.61
2023-01-13T08:02:13.816Z,91.58
2023-01-13T08:03:13.673Z,91.86
2023-01-13T08:04:13.656Z,91.53
2023-01-13T08:05:13.658Z,91.12
2023-01-13T08:06:13.617Z,91.26
2023-01-13T08:07:13.627Z,91.69
2023-01-13T08:08:13.604Z,91.87
2023-01-13T08:09:13.588Z,91.94
2023-01-13T08:10:13.576Z,92.18
2023-01-13T08:11:13.582Z,92.50
2023-01-13T08:12:13.559Z,92.62
2023-01-13T08:13:13.546Z,92.41
2023-01-13T08:14:13.510Z,92.43
2023-01-13T08:15:13.542Z,92.61
2023-01-13T08:16:13.578Z,92.58
2023-01-13T08:17:13.514Z,92.59
2023-01-13T08:18:13.503Z,92.84
2023-01-13T08:19:13.454Z,92.97
2023-01-13T08:20:13.467Z,92.88
2023-01-13T08:21:13.446Z,92.94
2023-01-13T08:22:13.434Z,93.11
2023-01-13T08:23:14.356Z,93.28
2023-01-13T08:24:13.392Z,93.40
2023-01-13T08:25:13.395Z,93.39
2023-01-13T08:26:13.380Z,93.59
2023-01-13T08:27:13.424Z,93.60
2023-01-13T08:28:13.536Z,93.82
2023-01-13T08:29:15.054Z,94.03
2023-01-13T08:30:13.314Z,94.06
2023-01-13T08:31:13.403Z,94.30
2023-01-13T08:32:13.295Z,94.47
2023-01-13T08:33:13.325Z,94.71
2023-01-13T08:34:13.264Z,94.72
2023-01-13T08:35:13.256Z,94.60
2023-01-13T08:36:13.257Z,94.37
2023-01-13T08:37:13.290Z,94.39
2023-01-13T08:38:13.245Z,94.42
2023-01-13T08:39:13.185Z,94.51
2023-01-13T08:40:13.172Z,94.17
2023-01-13T08:41:13.158Z,94.23
2023-01-13T08:42:13.167Z,94.38
2023-01-13T08:43:13.189Z,94.27
2023-01-13T08:44:13.145Z,93.95
2023-01-13T08:45:13.110Z,93.92
2023-01-13T08:46:13.154Z,93.94
2023-01-13T08:47:13.901Z,93.94
2023-01-13T08:48:13.090Z,93.69
2023-01-13T08:49:13.054Z,93.61
2023-01-13T08:50:13.106Z,93.42
2023-01-13T08:51:13.060Z,93.31
2023-01-13T08:52:13.043Z,93.10
2023-01-13T08:53:13.025Z,93.13
2023-01-13T08:54:13.016Z,92.72
2023-01-13T08:55:12.985Z,92.61
2023-01-13T08:56:13.018Z,92.84
2023-01-13T08:57:12.995Z,93.07
2023-01-13T08:58:16.423Z,93.23
2023-01-13T08:59:12.938Z,93.02
2023-01-13T09:00:12.928Z,92.94
2023-01-13T09:01:12.998Z,92.57
2023-01-13T09:02:13.035Z,92.63
2023-01-13T09:03:12.903Z,92.55
2023-01-13T09:04:12.912Z,92.50
2023-01-13T09:05:12.895Z,92.80
2023-01-13T09:06:12.832Z,92.81
2023-01-13T09:07:12.844Z,92.52
2023-01-13T09:08:12.846Z,92.67
2023-01-13T09:09:12.792Z,92.42
2023-01-13T09:10:12.786Z,92.67
2023-01-13T09:11:12.810Z,92.95
2023-01-13T09:12:12.774Z,92.91
2023-01-13T09:13:12.921Z,92.78
2023-01-13T09:14:12.731Z,92.86
2023-01-13T09:15:12.735Z,92.99
2023-01-13T09:16:12.769Z,93.37
2023-01-13T09:17:12.697Z,93.39
2023-01-13T09:18:12.820Z,93.45
2023-01-13T09:19:12.692Z,93.74
2023-01-13T09:20:12.647Z,93.93
2023-01-13T09:21:12.642Z,94.10
2023-01-13T09:22:12.669Z,93.96
2023-01-13T09:23:12.647Z,94.04
2023-01-13T09:24:12.611Z,94.02
2023-01-13T09:25:12.610Z,94.14
2023-01-13T09:26:12.602Z,94.23
2023-01-13T09:27:12.579Z,94.11
2023-01-13T09:28:12.595Z,94.19
2023-01-13T09:29:12.544Z,94.36
2023-01-13T09:30:12.512Z,94.13
2023-01-13T09:31:12.551Z,93.92
2023-01-13T09:32:12.550Z,93.69
2023-01-13T09:33:12.464Z,93.34
2023-01-13T09:34:12.452Z,93.42
2023-01-13T09:35:12.438Z,93.74
2023-01-13T09:36:12.432Z,93.96
2023-01-13T09:37:12.417Z,94.10
2023-01-13T09:38:12.442Z,94.16
2023-01-13T09:39:12.442Z,94.24
2023-01-13T09:40:12.396Z,93.97
2023-01-13T09:41:12.359Z,93.75
2023-01-13T09:42:12.352Z,93.93
2023-01-13T09:43:12.332Z,93.85
2023-01-13T09:44:12.335Z,93.82
2023-01-13T09:45:12.311Z,94.09
2023-01-13T09:46:12.361Z,93.66
2023-01-13T09:47:14.118Z,93.63
2023-01-13T09:48:12.289Z,93.80
2023-01-13T09:49:12.286Z,93.94
2023-01-13T09:50:12.306Z,93.94
2023-01-13T09:51:12.356Z,94.22
2023-01-13T09:52:12.230Z,94.23
2023-01-13T09:53:12.201Z,94.10
2023-01-13T09:54:12.191Z,94.32
2023-01-13T09:55:12.191Z,94.44
2023-01-13T09:56:12.177Z,94.52
2023-01-13T09:57:12.168Z,94.55
2023-01-13T09:58:12.172Z,94.49
2023-01-13T09:59:12.150Z,94.27
2023-01-13T10:00:12.117Z,94.14
2023-01-13T10:01:12.173Z,94.27
2023-01-13T10:02:12.114Z,94.32
2023-01-13T10:03:12.091Z,94.16
2023-01-13T10:04:12.084Z,94.22
2023-01-13T10:05:12.066Z,94.28
2023-01-13T10:06:12.041Z,94.34
2023-01-13T10:07:12.043Z,94.22
2023-01-13T10:08:12.026Z,93.90
2023-01-13T10:09:12.022Z,93.97
2023-01-13T10:10:11.988Z,93.87
2023-01-13T10:11:11.983Z,93.87
2023-01-13T10:12:12.005Z,94.01
2023-01-13T10:13:11.956Z,93.86
2023-01-13T10:14:11.965Z,93.67
2023-01-13T10:15:11.944Z,93.50
2023-01-13T10:16:12.009Z,93.39
2023-01-13T10:17:11.920Z,93.44
2023-01-13T10:18:11.908Z,93.24
2023-01-13T10:19:11.915Z,92.92
2023-01-13T10:20:11.858Z,92.66
2023-01-13T10:21:11.894Z,92.41
2023-01-13T10:22:11.885Z,92.39
2023-01-13T10:23:11.822Z,92.41
2023-01-13T10:24:11.809Z,92.19
2023-01-13T10:25:11.813Z,92.12
2023-01-13T10:26:11.843Z,92.04
2023-01-13T10:27:11.786Z,91.59
2023-01-13T10:28:11.769Z,91.36
2023-01-13T10:29:11.734Z,91.15
2023-01-13T10:30:11.721Z,91.10
2023-01-13T10:31:11.739Z,91.22
2023-01-13T10:32:11.704Z,91.22
2023-01-13T10:33:11.711Z,91.27
2023-01-13T10:34:11.717Z,90.84
2023-01-13T10:35:11.692Z,90.77
2023-01-13T10:36:11.672Z,91.09
2023-01-13T10:37:11.634Z,90.83
2023-01-13T10:38:11.603Z,91.22
2023-01-13T10:39:11.591Z,90.91
2023-01-13T10:40:11.604Z,90.72
2023-01-13T10:41:11.589Z,90.31
2023-01-13T10:42:11.580Z,90.55
2023-01-13T10:43:11.588Z,90.43
2023-01-13T10:44:11.559Z,90.60
2023-01-13T10:45:11.547Z,90.28
2023-01-13T10:46:11.556Z,89.87
2023-01-13T10:47:11.516Z,90.06
2023-01-13T10:48:11.513Z,90.06
2023-01-13T10:49:11.480Z,89.80
2023-01-13T10:50:11.466Z,89.88
2023-01-13T10:51:11.468Z,89.49
2023-01-13T10:52:11.478Z,90.00
2023-01-13T10:53:11.433Z,89.62
2023-01-13T10:54:11.431Z,89.44
2023-01-13T10:55:11.396Z,89.28
2023-01-13T10:56:11.367Z,89.65
2023-01-13T10:57:11.383Z,89.85
2023-01-13T10:58:11.358Z,89.40
2023-01-13T10:59:11.325Z,89.58
2023-01-13T11:00:11.329Z,89.42
2023-01-13T11:01:11.350Z,89.59
2023-01-13T11:02:24.793Z,89.41
2023-01-13T11:03:11.280Z,89.18
2023-01-13T11:04:11.286Z,89.20
2023-01-13T11:05:11.320Z,88.81
2023-01-13T11:06:11.252Z,88.64
2023-01-13T11:07:11.232Z,87.89
2023-01-13T11:08:11.226Z,88.16
2023-01-13T11:09:11.538Z,87.83
2023-01-13T11:10:11.199Z,87.14
2023-01-13T11:11:11.164Z,87.20
2023-01-13T11:12:11.166Z,87.43
2023-01-13T11:13:11.247Z,87.67
2023-01-13T11:14:11.166Z,86.66
2023-01-13T11:15:11.112Z,86.93
2023-01-13T11:16:11.140Z,87.02
2023-01-13T11:17:11.547Z,87.33
2023-01-13T11:18:11.075Z,86.90
2023-01-13T11:19:11.085Z,86.47
2023-01-13T11:20:11.078Z,86.29
2023-01-13T11:21:11.083Z,86.42
2023-01-13T11:22:11.064Z,85.88
2023-01-13T11:23:11.020Z,86.11
2023-01-13T11:24:11.013Z,85.40
2023-01-13T11:25:10.986Z,85.54
2023-01-13T11:26:10.971Z,86.07
2023-01-13T11:27:10.966Z,85.65
2023-01-13T11:28:10.956Z,84.92
2023-01-13T11:29:10.941Z,84.49
2023-01-13T11:30:10.951Z,85.48
2023-01-13T11:31:10.933Z,85.43
2023-01-13T11:32:10.895Z,85.03
2023-01-13T11:33:10.878Z,84.52
2023-01-13T11:34:10.862Z,84.47
2023-01-13T11:35:10.874Z,84.55
2023-01-13T11:36:10.876Z,84.14
2023-01-13T11:37:10.837Z,84.24
2023-01-13T11:38:10.810Z,83.89
2023-01-13T11:39:10.792Z,83.45
2023-01-13T11:40:10.815Z,83.62
2023-01-13T11:41:10.796Z,83.52
2023-01-13T11:42:10.794Z,83.07
2023-01-13T11:43:10.768Z,82.93
2023-01-13T11:44:10.733Z,82.19
2023-01-13T11:45:10.763Z,81.14
2023-01-13T11:46:10.724Z,80.67
2023-01-13T11:47:10.707Z,80.49
2023-01-13T11:48:10.726Z,80.81
2023-01-13T11:49:10.682Z,81.36
2023-01-13T11:50:10.723Z,81.86
2023-01-13T11:51:10.636Z,80.26
2023-01-13T11:52:10.646Z,79.54
2023-01-13T11:53:10.638Z,79.38
2023-01-13T11:54:10.638Z,78.47
2023-01-13T11:55:10.640Z,77.49
2023-01-13T11:56:10.587Z,76.88
2023-01-13T11:57:10.573Z,77.25
2023-01-13T11:58:10.577Z,77.99
2023-01-13T11:59:10.536Z,78.31
2023-01-13T12:00:10.589Z,78.54
2023-01-13T12:01:10.585Z,79.06
2023-01-13T12:02:10.536Z,79.38
2023-01-13T12:03:10.666Z,79.15
2023-01-13T12:04:10.476Z,78.62
2023-01-13T12:05:10.452Z,78.98
2023-01-13T12:06:10.456Z,78.97
2023-01-13T12:07:10.427Z,78.48
2023-01-13T12:08:10.435Z,77.88
2023-01-13T12:09:10.413Z,78.20
2023-01-13T12:10:13.425Z,77.56
2023-01-13T12:11:10.413Z,77.77
2023-01-13T12:12:10.417Z,76.36
2023-01-13T12:13:10.370Z,75.50
2023-01-13T12:14:10.344Z,77.27
2023-01-13T12:15:10.363Z,79.00
2023-01-13T12:16:10.363Z,80.26
2023-01-13T12:17:10.326Z,79.51
2023-01-13T12:18:10.304Z,78.57
2023-01-13T12:19:10.283Z,77.16
2023-01-13T12:20:10.275Z,76.68
2023-01-13T12:21:10.249Z,76.58
2023-01-13T12:22:10.247Z,75.47
2023-01-13T12:23:10.231Z,74.86
2023-01-13T12:24:10.243Z,75.13
2023-01-13T12:25:10.203Z,75.43
2023-01-13T12:26:10.288Z,75.10
2023-01-13T12:27:10.162Z,74.87
2023-01-13T12:28:10.188Z,76.48
2023-01-13T12:29:10.147Z,75.56
2023-01-13T12:30:10.129Z,75.30
2023-01-13T12:31:10.124Z,75.39
2023-01-13T12:32:10.113Z,75.55
2023-01-13T12:33:10.111Z,76.16
2023-01-13T12:34:10.109Z,76.92
2023-01-13T12:35:10.061Z,78.29
2023-01-13T12:36:10.060Z,78.79
2023-01-13T12:37:10.047Z,79.36
2023-01-13T12:38:10.068Z,79.65
2023-01-13T12:39:10.058Z,79.63
2023-01-13T12:40:10.042Z,80.22
2023-01-13T12:41:09.991Z,79.84
2023-01-13T12:42:09.987Z,79.84
2023-01-13T12:43:09.979Z,79.75
2023-01-13T12:44:09.944Z,80.23
2023-01-13T12:45:09.954Z,80.62
2023-01-13T12:46:09.946Z,80.57
2023-01-13T12:47:09.916Z,79.98
2023-01-13T12:48:09.899Z,80.09
2023-01-13T12:49:09.899Z,80.33
2023-01-13T12:50:09.888Z,79.96